Time;durP1;ratioP1;P1;durP2;ratioP2;P2;SDS_P1;SDS_P2;PMS_P1;PMS_P2;Temp;Humidity;BMP_temperature;BMP_pressure;BME280_temperature;BME280_humidity;BME280_pressure;Samples;Min_cycle;Max_cycle;Signal;HPM_P1;HPM_P2
2021/04/21 00:02:04;;;;;;;;;55.75;43.50;;;;;;;;5022244;28;11587;-82
2021/04/21 00:04:31;;;;;;;;;54.75;44.25;;;;;;;;5032096;28;11702;-82
2021/04/21 00:06:58;;;;;;;;;57.00;46.50;;;;;;;;5020451;28;11670;-82
2021/04/21 00:09:27;;;;;;;;;53.00;43.00;;;;;;;;5024905;28;11618;-82
2021/04/21 00:11:54;;;;;;;;;47.25;41.25;;;;;;;;5025105;28;11703;-83
2021/04/21 00:14:23;;;;;;;;;50.50;42.50;;;;;;;;5025501;28;11755;-83
2021/04/21 00:17:01;;;;;;;;;49.25;43.25;;;;;;;;5026039;28;11605;-84
2021/04/21 00:19:29;;;;;;;;;55.50;46.75;;;;;;;;5024940;28;11764;-85
2021/04/21 00:21:57;;;;;;;;;54.50;47.00;;;;;;;;5025218;28;11637;-88
2021/04/21 00:24:25;;;;;;;;;58.25;46.00;;;;;;;;5023311;28;11611;-86
2021/04/21 00:26:53;;;;;;;;;42.50;39.75;;;;;;;;5025451;28;11667;-83
2021/04/21 00:29:20;;;;;;;;;54.25;45.25;;;;;;;;5028356;28;11591;-84
2021/04/21 00:31:49;;;;;;;;;53.25;44.50;;;;;;;;5026602;28;11728;-84
2021/04/21 00:34:19;;;;;;;;;59.50;46.25;;;;;;;;5029608;28;11671;-82
2021/04/21 00:36:48;;;;;;;;;49.75;39.50;;;;;;;;5023329;28;11627;-86
2021/04/21 00:39:17;;;;;;;;;47.50;43.50;;;;;;;;5025036;28;11653;-84
2021/04/21 00:41:52;;;;;;;;;59.25;47.25;;;;;;;;5024438;28;11726;-83
2021/04/21 00:44:28;;;;;;;;;52.75;43.50;;;;;;;;5024039;28;11656;-84
2021/04/21 00:46:58;;;;;;;;;68.75;50.25;;;;;;;;5023528;28;11616;-86
2021/04/21 00:49:34;;;;;;;;;37.75;34.50;;;;;;;;5022657;28;11768;-84
2021/04/21 00:52:04;;;;;;;;;48.50;42.50;;;;;;;;5025029;28;11639;-86
2021/04/21 00:54:33;;;;;;;;;45.50;37.50;;;;;;;;5022065;28;11691;-82
2021/04/21 00:57:11;;;;;;;;;58.75;47.75;;;;;;;;5024995;28;11843;-81
2021/04/21 00:59:51;;;;;;;;;48.00;43.00;;;;;;;;5015238;28;11591;-81
2021/04/21 01:02:21;;;;;;;;;54.75;46.00;;;;;;;;5029336;28;11574;-82
2021/04/21 01:04:48;;;;;;;;;40.50;37.75;;;;;;;;5022859;28;11631;-82
2021/04/21 01:07:16;;;;;;;;;52.50;43.00;;;;;;;;5022745;28;11715;-81
2021/04/21 01:09:46;;;;;;;;;52.25;44.75;;;;;;;;5033935;28;11652;-82
2021/04/21 01:12:17;;;;;;;;;49.75;43.00;;;;;;;;5023982;28;11645;-83
2021/04/21 01:14:47;;;;;;;;;60.50;48.50;;;;;;;;5024394;28;11695;-83
2021/04/21 01:17:16;;;;;;;;;58.00;48.25;;;;;;;;5023510;28;11645;-81
2021/04/21 01:19:57;;;;;;;;;50.75;42.25;;;;;;;;5029403;28;11624;-82
2021/04/21 01:22:30;;;;;;;;;46.00;42.25;;;;;;;;5025797;28;11732;-83
2021/04/21 01:25:03;;;;;;;;;51.75;44.00;;;;;;;;5030677;28;11776;-82
2021/04/21 01:27:48;;;;;;;;;50.75;43.25;;;;;;;;5023598;28;11585;-80
2021/04/21 01:30:17;;;;;;;;;51.00;45.25;;;;;;;;5011669;28;11650;-80
2021/04/21 01:32:47;;;;;;;;;51.00;42.75;;;;;;;;5023182;28;11648;-80
2021/04/21 01:35:18;;;;;;;;;50.50;43.00;;;;;;;;5025518;28;11598;-82
2021/04/21 01:37:46;;;;;;;;;47.25;42.25;;;;;;;;5020956;28;11793;-81
2021/04/21 01:40:17;;;;;;;;;58.67;49.67;;;;;;;;5022163;28;11660;-81
2021/04/21 01:42:47;;;;;;;;;55.50;46.00;;;;;;;;5027344;28;11608;-83
2021/04/21 01:45:20;;;;;;;;;62.33;47.67;;;;;;;;5024673;28;11618;-84
2021/04/21 01:47:48;;;;;;;;;52.00;47.00;;;;;;;;5024636;28;11656;-83
2021/04/21 01:50:17;;;;;;;;;58.00;48.00;;;;;;;;5022955;28;11648;-87
2021/04/21 01:53:02;;;;;;;;;54.33;46.00;;;;;;;;5024624;28;11630;-84
2021/04/21 01:55:45;;;;;;;;;59.67;48.00;;;;;;;;5028049;28;11604;-82
2021/04/21 01:58:42;;;;;;;;;56.33;47.33;;;;;;;;5026169;28;12413;-83
2021/04/21 02:01:18;;;;;;;;;65.00;43.33;;;;;;;;5022615;28;11535;-82
2021/04/21 02:03:49;;;;;;;;;61.67;51.67;;;;;;;;5022858;28;11621;-81
2021/04/21 02:06:56;;;;;;;;;44.00;41.67;;;;;;;;5022929;28;11645;-82
2021/04/21 02:10:00;;;;;;;;;60.67;49.00;;;;;;;;5021788;28;11626;-82
2021/04/21 02:12:56;;;;;;;;;65.00;50.00;;;;;;;;4985042;28;8956;-82
2021/04/21 02:15:33;;;;;;;;;54.33;43.33;;;;;;;;5013716;28;9019;-84
2021/04/21 02:18:11;;;;;;;;;58.00;48.33;;;;;;;;5020924;28;11611;-82
2021/04/21 02:20:43;;;;;;;;;51.67;46.00;;;;;;;;5021767;28;11605;-82
2021/04/21 02:23:17;;;;;;;;;52.67;46.00;;;;;;;;5023073;28;8852;-83
2021/04/21 02:26:03;;;;;;;;;69.67;54.33;;;;;;;;5021306;28;11625;-81
2021/04/21 02:28:47;;;;;;;;;62.67;50.33;;;;;;;;5022070;28;8902;-81
2021/04/21 02:31:31;;;;;;;;;66.33;49.67;;;;;;;;5018972;28;8819;-84
2021/04/21 02:34:09;;;;;;;;;68.33;56.00;;;;;;;;5025193;28;9002;-84
2021/04/21 02:36:44;;;;;;;;;62.00;49.67;;;;;;;;5023279;28;8919;-84
2021/04/21 02:39:18;;;;;;;;;66.67;50.33;;;;;;;;5014617;28;8891;-84
2021/04/21 02:41:52;;;;;;;;;69.67;56.00;;;;;;;;5022441;28;8868;-82
2021/04/21 02:44:28;;;;;;;;;72.00;56.00;;;;;;;;5023312;28;8906;-84
2021/04/21 02:46:58;;;;;;;;;62.67;50.67;;;;;;;;5021384;28;8969;-85
2021/04/21 02:49:42;;;;;;;;;68.00;55.67;;;;;;;;5028439;28;9615;-87
2021/04/21 02:52:16;;;;;;;;;62.33;52.00;;;;;;;;5022655;28;8887;-83
2021/04/21 02:54:53;;;;;;;;;55.67;47.67;;;;;;;;5023037;28;8868;-83
2021/04/21 02:57:24;;;;;;;;;64.00;50.67;;;;;;;;5022665;28;8872;-84
2021/04/21 02:59:54;;;;;;;;;60.00;48.00;;;;;;;;5022435;28;8898;-83
2021/04/21 03:02:29;;;;;;;;;60.67;48.00;;;;;;;;5023786;28;8828;-82
2021/04/21 03:05:04;;;;;;;;;70.33;53.00;;;;;;;;5022070;28;11684;-82
2021/04/21 03:07:36;;;;;;;;;69.00;55.33;;;;;;;;5023096;28;8879;-83
2021/04/21 03:10:06;;;;;;;;;68.00;56.00;;;;;;;;5019944;28;8886;-83
2021/04/21 03:12:34;;;;;;;;;65.00;47.00;;;;;;;;5019373;28;8882;-82
2021/04/21 03:15:05;;;;;;;;;60.33;49.67;;;;;;;;5020755;28;8880;-84
2021/04/21 03:17:32;;;;;;;;;67.00;56.33;;;;;;;;5024711;28;8880;-82
2021/04/21 03:20:04;;;;;;;;;65.33;52.00;;;;;;;;5022902;28;8876;-83
2021/04/21 03:22:34;;;;;;;;;67.33;55.33;;;;;;;;5031107;28;9702;-82
2021/04/21 03:25:05;;;;;;;;;69.00;58.00;;;;;;;;5025973;28;8891;-82
2021/04/21 03:27:34;;;;;;;;;69.00;56.33;;;;;;;;5021841;28;8874;-82
2021/04/21 03:30:04;;;;;;;;;69.00;55.67;;;;;;;;5019490;28;8879;-82
2021/04/21 03:32:37;;;;;;;;;68.67;54.67;;;;;;;;5023300;28;8839;-82
2021/04/21 03:35:07;;;;;;;;;73.00;59.00;;;;;;;;5028962;28;8993;-82
2021/04/21 03:37:42;;;;;;;;;74.33;57.67;;;;;;;;5026591;28;8888;-83
2021/04/21 03:40:10;;;;;;;;;59.67;49.67;;;;;;;;5025694;28;8896;-82
2021/04/21 03:42:38;;;;;;;;;72.00;58.67;;;;;;;;5026485;28;8990;-82
2021/04/21 03:45:06;;;;;;;;;77.00;61.33;;;;;;;;5024707;28;8871;-83
2021/04/21 03:47:33;;;;;;;;;72.00;58.67;;;;;;;;5019563;28;8862;-82
2021/04/21 03:50:02;;;;;;;;;83.33;65.00;;;;;;;;5021674;28;8888;-81
2021/04/21 03:52:30;;;;;;;;;88.33;70.00;;;;;;;;5025052;28;8974;-82
2021/04/21 03:54:57;;;;;;;;;85.00;68.00;;;;;;;;5027387;28;8891;-82
2021/04/21 03:57:26;;;;;;;;;85.33;62.67;;;;;;;;5024949;28;8860;-82
2021/04/21 03:59:54;;;;;;;;;83.00;66.67;;;;;;;;5031879;28;8929;-82
2021/04/21 04:02:21;;;;;;;;;82.67;65.33;;;;;;;;5026053;28;8812;-82
2021/04/21 04:05:01;;;;;;;;;87.00;66.00;;;;;;;;5023788;28;8898;-81
2021/04/21 04:07:29;;;;;;;;;87.00;68.33;;;;;;;;5025606;28;8883;-81
2021/04/21 04:09:58;;;;;;;;;90.00;65.67;;;;;;;;5024692;28;8884;-80
2021/04/21 04:12:27;;;;;;;;;84.67;64.33;;;;;;;;5025978;28;8938;-83
2021/04/21 04:14:55;;;;;;;;;84.33;64.00;;;;;;;;5025488;28;8994;-83
2021/04/21 04:17:23;;;;;;;;;85.67;65.67;;;;;;;;5029513;28;8982;-81
2021/04/21 04:19:51;;;;;;;;;77.00;61.67;;;;;;;;5027759;28;8872;-87
2021/04/21 04:22:20;;;;;;;;;86.00;69.00;;;;;;;;5026112;28;8883;-88
2021/04/21 04:24:52;;;;;;;;;86.33;68.67;;;;;;;;5024465;28;8883;-89
2021/04/21 04:27:21;;;;;;;;;87.33;69.00;;;;;;;;5026224;28;8895;-87
2021/04/21 04:29:49;;;;;;;;;86.00;61.67;;;;;;;;5034676;28;8853;-84
2021/04/21 04:32:18;;;;;;;;;90.33;71.67;;;;;;;;5026469;28;8846;-80
2021/04/21 04:34:46;;;;;;;;;89.00;63.67;;;;;;;;5019839;28;9664;-84
2021/04/21 04:37:15;;;;;;;;;93.67;70.67;;;;;;;;5033984;28;8891;-82
2021/04/21 04:39:42;;;;;;;;;85.33;65.33;;;;;;;;5024215;28;8990;-83
2021/04/21 04:42:12;;;;;;;;;83.67;64.33;;;;;;;;5025535;28;8867;-84
2021/04/21 04:44:42;;;;;;;;;89.33;64.33;;;;;;;;5024901;28;8902;-84
2021/04/21 04:47:11;;;;;;;;;77.33;57.67;;;;;;;;5029308;28;8976;-83
2021/04/21 04:49:42;;;;;;;;;93.67;72.00;;;;;;;;5022773;28;8992;-82
2021/04/21 04:52:11;;;;;;;;;79.67;62.67;;;;;;;;5025282;28;8902;-83
2021/04/21 04:54:40;;;;;;;;;91.33;69.33;;;;;;;;5016212;28;8929;-82
2021/04/21 04:57:09;;;;;;;;;88.67;70.33;;;;;;;;5024841;28;8890;-80
2021/04/21 04:59:37;;;;;;;;;85.33;66.67;;;;;;;;5024391;28;8875;-81
2021/04/21 05:02:07;;;;;;;;;84.00;67.00;;;;;;;;5023674;28;8954;-81
2021/04/21 05:04:38;;;;;;;;;88.00;68.67;;;;;;;;5026122;28;8860;-80
2021/04/21 05:07:07;;;;;;;;;96.00;68.33;;;;;;;;5024209;28;8888;-82
2021/04/21 05:09:41;;;;;;;;;88.67;68.67;;;;;;;;5022586;28;8903;-80
2021/04/21 05:12:12;;;;;;;;;87.33;67.67;;;;;;;;5023644;28;9809;-79
2021/04/21 05:14:40;;;;;;;;;87.00;65.67;;;;;;;;5024258;28;9026;-81
2021/04/21 05:17:56;;;;;;;;;92.00;70.67;;;;;;;;5024585;28;8880;-84
2021/04/21 05:20:56;;;;;;;;;87.33;67.67;;;;;;;;5023169;28;8876;-80
2021/04/21 05:24:07;;;;;;;;;81.67;66.33;;;;;;;;5026472;28;8973;-79
2021/04/21 05:27:07;;;;;;;;;86.33;65.00;;;;;;;;5020996;28;9002;-79
2021/04/21 05:30:37;;;;;;;;;92.67;69.33;;;;;;;;5023369;28;8990;-79
2021/04/21 05:33:50;;;;;;;;;89.33;67.67;;;;;;;;5020389;28;8891;-78
2021/04/21 05:37:05;;;;;;;;;94.67;71.67;;;;;;;;5021327;28;8880;-76
2021/04/21 05:40:13;;;;;;;;;92.00;72.00;;;;;;;;4971932;28;8985;-78
2021/04/21 05:43:20;;;;;;;;;86.00;69.00;;;;;;;;5001053;28;8882;-77
2021/04/21 05:46:16;;;;;;;;;85.67;68.67;;;;;;;;5022147;28;9674;-75
2021/04/21 05:49:22;;;;;;;;;89.67;69.33;;;;;;;;5019674;28;8981;-76
2021/04/21 05:52:01;;;;;;;;;91.00;68.67;;;;;;;;5015004;28;8913;-75
2021/04/21 05:55:01;;;;;;;;;88.67;70.33;;;;;;;;5017583;28;8893;-76
2021/04/21 05:57:57;;;;;;;;;93.33;69.00;;;;;;;;5011444;28;8898;-77
2021/04/21 06:01:15;;;;;;;;;92.00;73.00;;;;;;;;5004706;28;8784;-71
2021/04/21 06:03:45;;;;;;;;;91.33;71.67;;;;;;;;5017153;28;9780;-76
2021/04/21 06:06:12;;;;;;;;;87.33;68.33;;;;;;;;5019481;28;8945;-74
2021/04/21 06:08:40;;;;;;;;;100.33;79.67;;;;;;;;5017022;28;8966;-74
2021/04/21 06:11:17;;;;;;;;;82.67;64.67;;;;;;;;5016858;28;8892;-75
2021/04/21 06:13:44;;;;;;;;;90.33;68.33;;;;;;;;5021442;28;8864;-76
2021/04/21 06:16:18;;;;;;;;;89.33;66.67;;;;;;;;5012723;28;10122;-78
2021/04/21 06:18:47;;;;;;;;;84.33;66.33;;;;;;;;5006889;28;8866;-76
2021/04/21 06:21:18;;;;;;;;;71.00;56.00;;;;;;;;5020924;28;8863;-73
2021/04/21 06:23:45;;;;;;;;;69.00;55.00;;;;;;;;5008501;28;8944;-73
2021/04/21 06:26:12;;;;;;;;;68.67;55.00;;;;;;;;5017647;28;8876;-77
2021/04/21 06:28:38;;;;;;;;;63.00;49.67;;;;;;;;5017710;28;8983;-77
2021/04/21 06:31:10;;;;;;;;;76.33;60.33;;;;;;;;5013927;28;8812;-76
2021/04/21 06:33:40;;;;;;;;;70.33;56.00;;;;;;;;5007708;28;8868;-75
2021/04/21 06:36:09;;;;;;;;;66.33;53.33;;;;;;;;5011902;28;11636;-71
2021/04/21 06:38:37;;;;;;;;;74.67;57.67;;;;;;;;5017599;28;11668;-77
2021/04/21 06:41:04;;;;;;;;;73.33;57.67;;;;;;;;5018110;28;11785;-76
2021/04/21 06:43:33;;;;;;;;;74.67;55.33;;;;;;;;5019280;28;11653;-76
2021/04/21 06:46:00;;;;;;;;;65.33;51.33;;;;;;;;5008188;28;12591;-74
2021/04/21 06:48:28;;;;;;;;;75.33;57.00;;;;;;;;5018077;28;11593;-74
2021/04/21 06:51:00;;;;;;;;;82.00;61.00;;;;;;;;5020304;28;11765;-75
2021/04/21 06:53:30;;;;;;;;;74.75;58.00;;;;;;;;5016623;28;11632;-77
2021/04/21 06:55:58;;;;;;;;;74.33;59.33;;;;;;;;5017354;28;11819;-77
2021/04/21 06:58:28;;;;;;;;;81.67;67.00;;;;;;;;5020091;28;11617;-75
2021/04/21 07:00:55;;;;;;;;;87.33;66.67;;;;;;;;5019387;28;12371;-74
2021/04/21 07:03:22;;;;;;;;;85.67;68.00;;;;;;;;5020715;28;12843;-76
2021/04/21 07:05:50;;;;;;;;;93.33;72.00;;;;;;;;5019605;28;8938;-74
2021/04/21 07:08:28;;;;;;;;;89.33;71.67;;;;;;;;5019591;28;8902;-76
2021/04/21 07:10:56;;;;;;;;;83.67;66.67;;;;;;;;5018207;28;11661;-70
2021/04/21 07:13:25;;;;;;;;;86.67;69.67;;;;;;;;5024059;28;12408;-72
2021/04/21 07:15:53;;;;;;;;;88.33;66.33;;;;;;;;5022389;28;12462;-76
2021/04/21 07:18:21;;;;;;;;;90.33;72.67;;;;;;;;5014876;28;11644;-74
2021/04/21 07:20:49;;;;;;;;;10.33;10.33;;;;;;;;5026014;28;11630;-74
2021/04/21 07:23:21;;;;;;;;;97.33;84.33;;;;;;;;5025226;28;11537;-68
2021/04/21 07:25:49;;;;;;;;;93.33;74.00;;;;;;;;5016099;28;11652;-72
2021/04/21 07:28:17;;;;;;;;;95.33;80.33;;;;;;;;5024582;28;11684;-79
2021/04/21 07:30:45;;;;;;;;;103.33;86.33;;;;;;;;5022315;28;11726;-77
2021/04/21 07:33:12;;;;;;;;;95.67;75.67;;;;;;;;5021554;28;11667;-78
2021/04/21 07:35:39;;;;;;;;;96.33;83.00;;;;;;;;5024020;28;11779;-73
2021/04/21 07:38:19;;;;;;;;;99.25;90.00;;;;;;;;5022735;28;11671;-76
2021/04/21 07:40:51;;;;;;;;;89.50;74.50;;;;;;;;5023973;28;11639;-70
2021/04/21 07:43:21;;;;;;;;;91.67;78.00;;;;;;;;5023413;28;11655;-73
2021/04/21 07:45:51;;;;;;;;;92.50;72.75;;;;;;;;5021684;28;11619;-71
2021/04/21 07:48:40;;;;;;;;;97.00;84.00;;;;;;;;5014844;28;11644;-74
2021/04/21 07:51:33;;;;;;;;;95.00;84.67;;;;;;;;5021957;28;11689;-74
2021/04/21 07:54:03;;;;;;;;;110.00;94.67;;;;;;;;5019208;28;11757;-73
2021/04/21 07:56:37;;;;;;;;;104.00;91.00;;;;;;;;5023442;28;8867;-77
2021/04/21 07:59:15;;;;;;;;;92.25;77.50;;;;;;;;5020067;28;11908;-72
2021/04/21 08:01:43;;;;;;;;;97.75;93.00;;;;;;;;5020612;28;11623;-78
2021/04/21 08:04:19;;;;;;;;;97.50;86.75;;;;;;;;5022907;28;12470;-74
2021/04/21 08:06:48;;;;;;;;;93.50;83.75;;;;;;;;5016496;28;11647;-70
2021/04/21 08:09:16;;;;;;;;;103.50;93.25;;;;;;;;5020710;28;12461;-71
2021/04/21 08:11:43;;;;;;;;;100.75;91.50;;;;;;;;5018945;28;11788;-77
2021/04/21 08:14:11;;;;;;;;;106.00;97.25;;;;;;;;5017745;28;11685;-76
2021/04/21 08:16:38;;;;;;;;;98.50;94.25;;;;;;;;5022047;28;11663;-75
2021/04/21 08:19:13;;;;;;;;;108.75;95.50;;;;;;;;5019497;28;11784;-76
2021/04/21 08:21:41;;;;;;;;;109.50;98.50;;;;;;;;5021281;28;11672;-77
2021/04/21 08:24:12;;;;;;;;;110.50;97.75;;;;;;;;5016325;28;11778;-74
2021/04/21 08:26:42;;;;;;;;;111.00;96.00;;;;;;;;5019851;28;11704;-75
2021/04/21 08:29:11;;;;;;;;;100.50;86.25;;;;;;;;5022244;28;11772;-76
2021/04/21 08:31:45;;;;;;;;;105.75;89.75;;;;;;;;5018524;28;12378;-77
2021/04/21 08:34:13;;;;;;;;;107.75;92.50;;;;;;;;5020066;28;11723;-75
2021/04/21 08:36:40;;;;;;;;;106.00;92.25;;;;;;;;5021840;28;11691;-73
2021/04/21 08:39:08;;;;;;;;;102.25;90.00;;;;;;;;5023997;28;11747;-75
2021/04/21 08:41:44;;;;;;;;;107.50;87.75;;;;;;;;5016653;28;11853;-71
2021/04/21 08:44:14;;;;;;;;;91.50;81.75;;;;;;;;5017157;28;11812;-72
2021/04/21 08:46:44;;;;;;;;;94.25;83.50;;;;;;;;5021867;28;11641;-77
2021/04/21 08:49:12;;;;;;;;;86.25;77.00;;;;;;;;5015856;28;11798;-77
2021/04/21 08:51:43;;;;;;;;;89.50;78.50;;;;;;;;5022003;28;11717;-72
2021/04/21 08:54:11;;;;;;;;;91.50;82.50;;;;;;;;5020238;28;11650;-72
2021/04/21 08:56:47;;;;;;;;;91.25;78.75;;;;;;;;5023987;28;11636;-74
2021/04/21 08:59:15;;;;;;;;;86.25;77.75;;;;;;;;5019222;28;11658;-73
2021/04/21 09:01:44;;;;;;;;;79.00;61.50;;;;;;;;5020863;28;11640;-75
2021/04/21 09:04:13;;;;;;;;;86.50;74.50;;;;;;;;5023861;28;11726;-70
2021/04/21 09:06:40;;;;;;;;;86.00;71.00;;;;;;;;5022220;28;11591;-73
2021/04/21 09:09:08;;;;;;;;;84.75;73.75;;;;;;;;5019289;28;11582;-74
2021/04/21 09:11:35;;;;;;;;;82.25;71.00;;;;;;;;5020904;28;11609;-70
2021/04/21 09:14:03;;;;;;;;;86.00;80.00;;;;;;;;5024389;28;11617;-71
2021/04/21 09:16:30;;;;;;;;;84.75;72.50;;;;;;;;5020971;28;11612;-74
2021/04/21 09:18:57;;;;;;;;;80.50;73.00;;;;;;;;5019304;28;11574;-75
2021/04/21 09:21:31;;;;;;;;;81.00;66.75;;;;;;;;5022276;28;12390;-75
2021/04/21 09:23:58;;;;;;;;;79.00;65.50;;;;;;;;5020330;28;11602;-75
2021/04/21 09:26:26;;;;;;;;;83.25;73.00;;;;;;;;5020072;28;11495;-72
2021/04/21 09:28:54;;;;;;;;;82.25;68.50;;;;;;;;5020780;28;11299;-70
2021/04/21 09:31:25;;;;;;;;;77.50;59.75;;;;;;;;5022366;28;11071;-73
2021/04/21 09:34:08;;;;;;;;;78.75;67.25;;;;;;;;5022362;28;10825;-73
2021/04/21 09:36:36;;;;;;;;;75.25;57.25;;;;;;;;5020246;28;10751;-74
2021/04/21 09:39:11;;;;;;;;;72.75;57.75;;;;;;;;5018918;28;10806;-74
2021/04/21 09:41:39;;;;;;;;;69.50;55.00;;;;;;;;5022142;28;11791;-75
2021/04/21 09:44:14;;;;;;;;;74.00;57.25;;;;;;;;5022076;28;10701;-74
2021/04/21 09:46:44;;;;;;;;;74.75;58.00;;;;;;;;5021136;28;10319;-75
2021/04/21 09:49:32;;;;;;;;;69.00;55.50;;;;;;;;5021929;28;11087;-73
2021/04/21 09:52:01;;;;;;;;;69.25;54.75;;;;;;;;5021706;28;10252;-74
2021/04/21 09:54:30;;;;;;;;;71.50;57.25;;;;;;;;5009541;28;10296;-76
2021/04/21 09:57:07;;;;;;;;;70.25;55.50;;;;;;;;5021728;28;10420;-74
2021/04/21 09:59:34;;;;;;;;;70.50;55.50;;;;;;;;5018122;28;10832;-75
2021/04/21 10:02:02;;;;;;;;;71.00;56.00;;;;;;;;5019132;28;9832;-77
2021/04/21 10:04:29;;;;;;;;;71.75;55.50;;;;;;;;5021823;28;9968;-75
2021/04/21 10:06:57;;;;;;;;;68.75;54.00;;;;;;;;5019256;28;10167;-69
2021/04/21 10:09:27;;;;;;;;;67.50;55.00;;;;;;;;5016190;28;10843;-73
2021/04/21 10:12:14;;;;;;;;;63.50;51.25;;;;;;;;5018407;28;10038;-73
2021/04/21 10:14:41;;;;;;;;;68.75;56.25;;;;;;;;5019256;28;9961;-72
2021/04/21 10:17:09;;;;;;;;;69.75;55.25;;;;;;;;5013228;28;10000;-73
2021/04/21 10:19:37;;;;;;;;;64.25;52.25;;;;;;;;5021406;28;9835;-73
2021/04/21 10:22:04;;;;;;;;;68.75;55.25;;;;;;;;5016201;28;9884;-70
2021/04/21 10:24:32;;;;;;;;;66.25;53.25;;;;;;;;5021780;28;10543;-75
2021/04/21 10:26:59;;;;;;;;;72.00;56.50;;;;;;;;5016956;28;9789;-74
2021/04/21 10:29:26;;;;;;;;;69.00;56.25;;;;;;;;5023502;28;9909;-78
2021/04/21 10:31:54;;;;;;;;;69.00;53.50;;;;;;;;5020798;28;9773;-74
2021/04/21 10:34:22;;;;;;;;;66.00;53.25;;;;;;;;5021012;28;9829;-74
2021/04/21 10:36:50;;;;;;;;;67.50;53.25;;;;;;;;5018200;28;9631;-75
2021/04/21 10:39:29;;;;;;;;;69.50;55.25;;;;;;;;5016997;28;9598;-74
2021/04/21 10:42:04;;;;;;;;;71.25;58.50;;;;;;;;5017835;28;9679;-74
2021/04/21 10:44:32;;;;;;;;;67.33;53.00;;;;;;;;5017708;28;10682;-75
2021/04/21 10:47:09;;;;;;;;;68.75;55.00;;;;;;;;5019370;28;9630;-76
2021/04/21 10:49:58;;;;;;;;;64.67;53.00;;;;;;;;5019327;28;9666;-76
2021/04/21 10:52:37;;;;;;;;;68.25;55.25;;;;;;;;5014914;28;9391;-74
2021/04/21 10:55:32;;;;;;;;;59.33;46.67;;;;;;;;5019563;28;9609;-76
2021/04/21 10:58:03;;;;;;;;;61.67;48.67;;;;;;;;5024080;28;9367;-76
2021/04/21 11:00:30;;;;;;;;;61.00;49.33;;;;;;;;5022799;28;9203;-76
2021/04/21 11:03:02;;;;;;;;;61.67;49.33;;;;;;;;5015268;28;9036;-73
2021/04/21 11:05:48;;;;;;;;;64.00;50.67;;;;;;;;5020482;28;9287;-76
2021/04/21 11:08:17;;;;;;;;;57.33;47.33;;;;;;;;5015139;28;9106;-76
2021/04/21 11:10:54;;;;;;;;;61.67;51.00;;;;;;;;5025661;28;9205;-78
2021/04/21 11:13:44;;;;;;;;;58.33;46.67;;;;;;;;5027395;28;9191;-74
2021/04/21 11:16:36;;;;;;;;;66.00;51.33;;;;;;;;5018329;28;9286;-78
2021/04/21 11:19:27;;;;;;;;;58.33;47.00;;;;;;;;5009425;28;9013;-76
2021/04/21 11:22:37;;;;;;;;;60.33;49.33;;;;;;;;5012349;28;9052;-76
2021/04/21 11:25:32;;;;;;;;;62.00;49.50;;;;;;;;5001222;28;8957;-75
2021/04/21 11:27:59;;;;;;;;;64.33;52.00;;;;;;;;5016827;28;8852;-75
2021/04/21 11:30:56;;;;;;;;;66.00;52.00;;;;;;;;5018738;28;8978;-73
2021/04/21 11:33:57;;;;;;;;;54.00;45.00;;;;;;;;4974260;28;9027;-74
2021/04/21 11:36:46;;;;;;;;;59.00;47.25;;;;;;;;4976958;28;8877;-70
2021/04/21 11:39:13;;;;;;;;;54.75;45.00;;;;;;;;4977534;28;8903;-76
2021/04/21 11:41:43;;;;;;;;;53.75;44.75;;;;;;;;4998597;28;8976;-74
2021/04/21 11:44:13;;;;;;;;;53.25;44.75;;;;;;;;5018038;28;8898;-74
2021/04/21 11:46:59;;;;;;;;;52.75;43.75;;;;;;;;5019748;28;9670;-75
2021/04/21 11:50:04;;;;;;;;;53.00;45.00;;;;;;;;5015162;28;9133;-76
2021/04/21 11:52:44;;;;;;;;;56.50;45.00;;;;;;;;5014074;28;8918;-74
2021/04/21 11:55:17;;;;;;;;;58.25;45.50;;;;;;;;5019273;28;8925;-75
2021/04/21 11:57:51;;;;;;;;;58.00;46.50;;;;;;;;5021829;28;8879;-73
2021/04/21 12:00:21;;;;;;;;;57.75;44.50;;;;;;;;5024813;28;8876;-74
2021/04/21 12:02:52;;;;;;;;;59.00;47.25;;;;;;;;5023222;28;9039;-75
2021/04/21 12:05:32;;;;;;;;;54.75;46.00;;;;;;;;5019194;28;9690;-74
2021/04/21 12:08:02;;;;;;;;;58.50;48.00;;;;;;;;5018052;28;8921;-76
2021/04/21 12:10:33;;;;;;;;;54.00;44.75;;;;;;;;5020394;28;8875;-74
2021/04/21 12:13:33;;;;;;;;;58.00;45.25;;;;;;;;5020471;28;8856;-75
2021/04/21 12:16:09;;;;;;;;;56.00;45.25;;;;;;;;4978687;28;8865;-74
2021/04/21 12:18:38;;;;;;;;;55.00;42.25;;;;;;;;5014587;28;9742;-75
2021/04/21 12:21:36;;;;;;;;;59.25;47.25;;;;;;;;5017475;28;8863;-76
2021/04/21 12:24:11;;;;;;;;;59.75;48.25;;;;;;;;5019238;28;8905;-73
2021/04/21 12:26:45;;;;;;;;;58.75;47.75;;;;;;;;5021293;28;8874;-75
2021/04/21 12:29:18;;;;;;;;;61.00;47.75;;;;;;;;5021526;28;8855;-74
2021/04/21 12:31:47;;;;;;;;;60.50;47.25;;;;;;;;5019693;28;8820;-74
2021/04/21 12:34:16;;;;;;;;;57.50;47.25;;;;;;;;5016850;28;9822;-72
2021/04/21 12:36:44;;;;;;;;;52.50;44.25;;;;;;;;5013897;28;8895;-78
2021/04/21 12:39:13;;;;;;;;;50.50;42.75;;;;;;;;5019363;28;9767;-73
2021/04/21 12:41:43;;;;;;;;;50.00;38.50;;;;;;;;5024585;28;8883;-74
2021/04/21 12:44:20;;;;;;;;;49.75;41.50;;;;;;;;5019086;28;8858;-73
2021/04/21 12:46:48;;;;;;;;;53.00;43.50;;;;;;;;5021303;28;8978;-75
2021/04/21 12:49:27;;;;;;;;;60.50;47.50;;;;;;;;5022685;28;9517;-74
2021/04/21 12:51:59;;;;;;;;;52.25;43.00;;;;;;;;5021225;28;8891;-76
2021/04/21 12:54:34;;;;;;;;;57.50;46.75;;;;;;;;5021647;28;8868;-74
2021/04/21 12:57:03;;;;;;;;;52.25;45.00;;;;;;;;5014409;28;8859;-73
2021/04/21 12:59:40;;;;;;;;;53.50;45.00;;;;;;;;5012859;28;8998;-76
2021/04/21 13:02:07;;;;;;;;;59.75;48.00;;;;;;;;5016690;28;8869;-73
2021/04/21 13:04:40;;;;;;;;;57.00;46.00;;;;;;;;5014652;28;8876;-74
2021/04/21 13:07:16;;;;;;;;;55.50;44.50;;;;;;;;5017379;28;8879;-75
2021/04/21 13:09:44;;;;;;;;;52.75;43.25;;;;;;;;5021289;28;8861;-74
2021/04/21 13:12:12;;;;;;;;;54.00;45.00;;;;;;;;5020117;28;8871;-74
2021/04/21 13:14:42;;;;;;;;;54.75;46.25;;;;;;;;5024739;28;8925;-75
2021/04/21 13:17:10;;;;;;;;;55.75;46.00;;;;;;;;5022172;28;8921;-75
2021/04/21 13:19:38;;;;;;;;;56.75;45.50;;;;;;;;5018587;28;8965;-74
2021/04/21 13:22:10;;;;;;;;;55.50;45.00;;;;;;;;5014980;28;9018;-72
2021/04/21 13:24:47;;;;;;;;;58.00;44.25;;;;;;;;5017494;28;8884;-75
2021/04/21 13:27:20;;;;;;;;;57.75;46.00;;;;;;;;5013385;28;8872;-74
2021/04/21 13:29:58;;;;;;;;;58.25;46.00;;;;;;;;5014032;28;8929;-74
2021/04/21 13:32:25;;;;;;;;;63.00;49.67;;;;;;;;5020012;28;8796;-74
2021/04/21 13:34:54;;;;;;;;;55.00;45.50;;;;;;;;5030294;28;9836;-74
2021/04/21 13:37:21;;;;;;;;;52.25;43.00;;;;;;;;5014389;28;8876;-72
2021/04/21 13:39:59;;;;;;;;;60.67;48.00;;;;;;;;5014551;28;8872;-73
2021/04/21 13:42:26;;;;;;;;;62.67;50.00;;;;;;;;5024767;28;9224;-74
2021/04/21 13:45:05;;;;;;;;;54.33;44.67;;;;;;;;5019474;28;9076;-73
2021/04/21 13:47:32;;;;;;;;;51.75;42.75;;;;;;;;5018709;28;9021;-76
2021/04/21 13:49:59;;;;;;;;;46.00;39.00;;;;;;;;5007151;28;8868;-72
2021/04/21 13:52:26;;;;;;;;;37.75;33.75;;;;;;;;5016031;28;8902;-73
2021/04/21 13:54:53;;;;;;;;;32.50;30.75;;;;;;;;5014731;28;8880;-71
2021/04/21 13:57:21;;;;;;;;;24.50;24.50;;;;;;;;5017927;28;8860;-77
2021/04/21 13:59:49;;;;;;;;;44.50;37.75;;;;;;;;5016724;28;8884;-72
2021/04/21 14:02:17;;;;;;;;;47.50;39.50;;;;;;;;5014233;28;8812;-74
2021/04/21 14:04:45;;;;;;;;;45.75;39.50;;;;;;;;5017181;28;8979;-73
2021/04/21 14:07:12;;;;;;;;;47.50;40.25;;;;;;;;5024139;28;8871;-74
2021/04/21 14:09:40;;;;;;;;;52.00;42.00;;;;;;;;5020950;28;8852;-73
2021/04/21 14:12:08;;;;;;;;;53.50;44.00;;;;;;;;5010524;28;8930;-71
2021/04/21 14:14:35;;;;;;;;;59.75;46.75;;;;;;;;5019809;28;8896;-74
2021/04/21 14:17:02;;;;;;;;;54.75;45.00;;;;;;;;5019244;28;8890;-70
2021/04/21 14:19:30;;;;;;;;;48.50;40.50;;;;;;;;5020524;28;8888;-75
2021/04/21 14:21:58;;;;;;;;;57.25;47.25;;;;;;;;5017599;28;8879;-70
2021/04/21 14:24:25;;;;;;;;;57.75;47.00;;;;;;;;5018770;28;8907;-75
2021/04/21 14:26:52;;;;;;;;;54.00;45.25;;;;;;;;5020758;28;8856;-71
2021/04/21 14:29:22;;;;;;;;;53.25;44.75;;;;;;;;5020778;28;8883;-72
2021/04/21 14:31:49;;;;;;;;;56.25;45.75;;;;;;;;5020946;28;8824;-73
2021/04/21 14:34:16;;;;;;;;;57.00;46.75;;;;;;;;5019200;28;8898;-77
2021/04/21 14:36:46;;;;;;;;;55.25;46.50;;;;;;;;5021175;28;8929;-74
2021/04/21 14:39:13;;;;;;;;;59.25;46.75;;;;;;;;5015429;28;8884;-76
2021/04/21 14:41:41;;;;;;;;;50.50;43.25;;;;;;;;5020829;28;8868;-77
2021/04/21 14:44:09;;;;;;;;;50.00;42.00;;;;;;;;5019822;28;8875;-73
2021/04/21 14:46:37;;;;;;;;;57.00;43.75;;;;;;;;5012096;28;8933;-75
2021/04/21 14:49:05;;;;;;;;;53.50;45.25;;;;;;;;5016242;28;8958;-73
2021/04/21 14:51:32;;;;;;;;;52.25;43.75;;;;;;;;5015275;28;8878;-76
2021/04/21 14:53:59;;;;;;;;;56.25;46.00;;;;;;;;5019057;28;8910;-75
2021/04/21 14:56:27;;;;;;;;;56.25;45.00;;;;;;;;5019294;28;8875;-77
2021/04/21 14:58:54;;;;;;;;;55.50;45.50;;;;;;;;5020378;28;8990;-74
2021/04/21 15:01:21;;;;;;;;;53.25;43.75;;;;;;;;5020013;28;8799;-75